createdAt,value
2017-06-08T00:00:53.511Z,23.84
2017-06-08T00:01:53.851Z,23.94
2017-06-08T00:02:53.877Z,23.88
2017-06-08T00:03:53.909Z,23.9
2017-06-08T00:04:53.621Z,24
2017-06-08T00:05:53.959Z,23.87
2017-06-08T00:06:53.683Z,23.94
2017-06-08T00:07:54.013Z,23.94
2017-06-08T00:08:53.730Z,23.88
2017-06-08T00:09:54.075Z,23.95
2017-06-08T00:10:54.134Z,23.84
2017-06-08T00:11:53.504Z,23.84
2017-06-08T00:12:53.840Z,23.88
2017-06-08T00:13:54.189Z,23.84
2017-06-08T00:14:54.217Z,23.83
2017-06-08T00:15:54.234Z,23.87
2017-06-08T00:16:53.947Z,23.85
2017-06-08T00:17:53.987Z,23.85
2017-06-08T00:18:54.321Z,23.85
2017-06-08T00:19:54.350Z,23.87
2017-06-08T00:20:53.743Z,23.8
2017-06-08T00:21:54.656Z,23.87
2017-06-08T00:22:54.120Z,23.88
2017-06-08T00:23:54.457Z,23.83
2017-06-08T00:24:54.170Z,23.88
2017-06-08T00:25:54.551Z,23.76
2017-06-08T00:26:54.792Z,23.9
2017-06-08T00:27:54.256Z,23.87
2017-06-08T00:28:54.597Z,23.87
2017-06-08T00:29:54.306Z,23.85
2017-06-08T00:30:54.642Z,23.9
2017-06-08T00:31:54.931Z,23.87
2017-06-08T00:32:54.696Z,23.85
2017-06-08T00:33:54.737Z,23.79
2017-06-08T00:34:54.445Z,23.78
2017-06-08T00:35:54.486Z,23.79
2017-06-08T00:36:54.760Z,23.84
2017-06-08T00:37:54.215Z,23.83
2017-06-08T00:38:54.866Z,23.76
2017-06-08T00:39:54.582Z,23.72
2017-06-08T00:40:54.955Z,23.85
2017-06-08T00:41:55.199Z,23.78
2017-06-08T00:42:54.665Z,23.75
2017-06-08T00:43:55.010Z,23.72
2017-06-08T00:44:55.032Z,23.8
2017-06-08T00:45:54.756Z,23.75
2017-06-08T00:46:55.030Z,23.83
2017-06-08T00:47:55.120Z,23.79
2017-06-08T00:48:55.140Z,23.68
2017-06-08T00:49:55.378Z,23.7
2017-06-08T00:50:54.888Z,23.72
2017-06-08T00:51:55.431Z,23.73
2017-06-08T00:52:54.945Z,23.72
2017-06-08T00:53:54.968Z,23.76
2017-06-08T00:54:55.002Z,23.76
2017-06-08T00:55:55.339Z,23.73
2017-06-08T00:56:55.619Z,23.73
2017-06-08T00:57:55.399Z,23.75
2017-06-08T00:58:55.102Z,23.75
2017-06-08T00:59:55.136Z,23.79
2017-06-08T01:00:55.187Z,23.75
2017-06-08T01:01:55.122Z,23.73
2017-06-08T01:02:55.219Z,23.72
2017-06-08T01:03:55.556Z,23.76
2017-06-08T01:04:55.585Z,23.73
2017-06-08T01:05:55.634Z,23.73
2017-06-08T01:06:55.892Z,23.83
2017-06-08T01:07:55.663Z,23.7
2017-06-08T01:08:55.696Z,23.76
2017-06-08T01:09:55.413Z,23.79
2017-06-08T01:10:55.745Z,23.78
2017-06-08T01:11:56.025Z,23.8
2017-06-08T01:12:55.807Z,23.76
2017-06-08T01:13:55.832Z,23.78
2017-06-08T01:14:55.546Z,23.68
2017-06-08T01:15:55.886Z,23.73
2017-06-08T01:16:55.278Z,23.73
2017-06-08T01:17:55.947Z,23.69
2017-06-08T01:18:55.656Z,23.75
2017-06-08T01:19:55.997Z,23.68
2017-06-08T01:20:55.714Z,23.72
2017-06-08T01:21:56.055Z,23.73
2017-06-08T01:22:55.763Z,23.72
2017-06-08T01:23:56.107Z,23.75
2017-06-08T01:24:56.133Z,23.66
2017-06-08T01:25:56.165Z,23.75
2017-06-08T01:26:56.186Z,23.73
2017-06-08T01:27:56.218Z,23.69
2017-06-08T01:28:55.926Z,23.7
2017-06-08T01:29:56.272Z,23.73
2017-06-08T01:30:56.309Z,23.68
2017-06-08T01:31:56.015Z,23.72
2017-06-08T01:32:56.039Z,23.73
2017-06-08T01:33:56.375Z,23.72
2017-06-08T01:34:56.101Z,23.72
2017-06-08T01:35:56.115Z,23.68
2017-06-08T01:36:56.458Z,23.7
2017-06-08T01:37:56.492Z,23.72
2017-06-08T01:38:56.207Z,23.63
2017-06-08T01:39:56.232Z,23.69
2017-06-08T01:40:56.571Z,23.73
2017-06-08T01:41:56.605Z,23.61
2017-06-08T01:42:56.627Z,23.66
2017-06-08T01:43:56.655Z,23.6
2017-06-08T01:44:56.685Z,23.58
2017-06-08T01:45:56.398Z,23.57
2017-06-08T01:46:56.729Z,23.58
2017-06-08T01:47:56.766Z,23.63
2017-06-08T01:48:56.787Z,23.58
2017-06-08T01:49:56.196Z,23.63
2017-06-08T01:50:56.849Z,23.63
2017-06-08T01:51:56.866Z,23.53
2017-06-08T01:52:56.903Z,23.61
2017-06-08T01:53:56.931Z,23.66
2017-06-08T01:54:56.947Z,23.6
2017-06-08T01:55:56.984Z,23.61
2017-06-08T01:56:56.693Z,23.6
2017-06-08T01:57:57.046Z,23.57
2017-06-08T01:58:57.068Z,23.6
2017-06-08T01:59:57.099Z,23.63
2017-06-08T02:00:56.804Z,23.6
2017-06-08T02:01:56.837Z,23.57
2017-06-08T02:02:57.170Z,23.6
2017-06-08T02:03:57.206Z,23.58
2017-06-08T02:04:57.232Z,23.55
2017-06-08T02:05:56.942Z,23.55
2017-06-08T02:06:57.282Z,23.57
2017-06-08T02:07:56.690Z,23.6
2017-06-08T02:08:57.342Z,23.55
2017-06-08T02:09:57.368Z,23.55
2017-06-08T02:10:56.769Z,23.55
2017-06-08T02:11:57.417Z,23.57
2017-06-08T02:12:57.695Z,23.6
2017-06-08T02:13:57.475Z,23.55
2017-06-08T02:14:57.505Z,23.57
2017-06-08T02:15:57.532Z,23.55
2017-06-08T02:16:57.274Z,23.6
2017-06-08T02:17:57.522Z,23.54
2017-06-08T02:18:57.611Z,23.57
2017-06-08T02:19:57.007Z,23.54
2017-06-08T02:20:57.357Z,23.5
2017-06-08T02:21:57.694Z,23.48
2017-06-08T02:22:57.602Z,23.61
2017-06-08T02:23:57.443Z,23.58
2017-06-08T02:24:57.775Z,23.53
2017-06-08T02:25:57.805Z,23.53
2017-06-08T02:26:57.204Z,23.54
2017-06-08T02:27:57.794Z,23.57
2017-06-08T02:28:57.600Z,23.5
2017-06-08T02:29:57.604Z,23.53
2017-06-08T02:30:57.940Z,23.55
2017-06-08T02:31:57.657Z,23.57
2017-06-08T02:32:58.250Z,23.53
2017-06-08T02:33:58.007Z,23.53
2017-06-08T02:34:58.052Z,23.55
2017-06-08T02:35:58.069Z,23.51
2017-06-08T02:36:57.796Z,23.55
2017-06-08T02:37:58.071Z,23.5
2017-06-08T02:38:57.847Z,23.51
2017-06-08T02:39:57.876Z,23.53
2017-06-08T02:40:58.216Z,23.46
2017-06-08T02:41:57.936Z,23.51
2017-06-08T02:42:58.469Z,23.46
2017-06-08T02:43:57.659Z,23.48
2017-06-08T02:44:58.313Z,23.46
2017-06-08T02:45:58.352Z,23.47
2017-06-08T02:46:58.059Z,23.53
2017-06-08T02:47:58.650Z,23.5
2017-06-08T02:48:58.434Z,23.48
2017-06-08T02:49:58.459Z,23.46
2017-06-08T02:50:58.488Z,23.46
2017-06-08T02:51:58.513Z,23.46
2017-06-08T02:52:58.793Z,23.48
2017-06-08T02:53:58.571Z,23.48
2017-06-08T02:54:57.963Z,23.48
2017-06-08T02:55:58.312Z,23.5
2017-06-08T02:56:58.374Z,23.5
2017-06-08T02:57:58.922Z,23.47
2017-06-08T02:58:58.079Z,23.47
2017-06-08T02:59:58.734Z,23.46
2017-06-08T03:00:58.449Z,23.43
2017-06-08T03:01:58.476Z,23.47
2017-06-08T03:02:59.056Z,23.47
2017-06-08T03:03:58.844Z,23.5
2017-06-08T03:04:58.875Z,23.43
2017-06-08T03:05:58.584Z,23.48
2017-06-08T03:06:58.954Z,23.46
2017-06-08T03:07:59.192Z,23.48
2017-06-08T03:08:58.983Z,23.38
2017-06-08T03:09:59.007Z,23.4
2017-06-08T03:10:59.031Z,23.46
2017-06-08T03:11:59.063Z,23.42
2017-06-08T03:12:59.285Z,23.4
2017-06-08T03:13:59.111Z,23.39
2017-06-08T03:14:58.831Z,23.48
2017-06-08T03:15:59.159Z,23.39
2017-06-08T03:16:59.194Z,23.39
2017-06-08T03:17:59.480Z,23.4
2017-06-08T03:18:59.249Z,23.46
2017-06-08T03:19:59.278Z,23.39
2017-06-08T03:20:59.303Z,23.39
2017-06-08T03:21:59.016Z,23.39
2017-06-08T03:22:59.360Z,23.43
2017-06-08T03:23:59.386Z,23.42
2017-06-08T03:24:59.415Z,23.47
2017-06-08T03:25:59.439Z,23.39
2017-06-08T03:26:58.844Z,23.46
2017-06-08T03:27:58.872Z,23.48
2017-06-08T03:28:59.209Z,23.42
2017-06-08T03:29:59.542Z,23.46
2017-06-08T03:30:59.259Z,23.47
2017-06-08T03:31:59.604Z,23.4
2017-06-08T03:32:59.634Z,23.39
2017-06-08T03:33:59.330Z,23.39
2017-06-08T03:34:59.375Z,23.38
2017-06-08T03:35:59.707Z,23.46
2017-06-08T03:36:59.745Z,23.43
2017-06-08T03:37:59.764Z,23.39
2017-06-08T03:38:59.789Z,23.36
2017-06-08T03:39:59.830Z,23.43
2017-06-08T03:40:59.851Z,23.42
2017-06-08T03:41:59.875Z,23.43
2017-06-08T03:42:59.901Z,23.36
2017-06-08T03:43:59.967Z,23.48
2017-06-08T03:44:59.958Z,23.43
2017-06-08T03:45:59.987Z,23.42
2017-06-08T03:46:59.695Z,23.42
2017-06-08T03:48:00.038Z,23.47
2017-06-08T03:48:59.754Z,23.42
2017-06-08T03:49:59.779Z,23.42
2017-06-08T03:50:59.815Z,23.42
2017-06-08T03:51:59.839Z,23.42
2017-06-08T03:52:59.861Z,23.38
2017-06-08T03:54:00.201Z,23.43
2017-06-08T03:55:00.231Z,23.39
2017-06-08T03:56:00.263Z,23.38
2017-06-08T03:56:59.975Z,23.4
2017-06-08T03:58:00.313Z,23.47
2017-06-08T03:59:00.332Z,23.4
2017-06-08T04:00:00.045Z,23.39
2017-06-08T04:01:00.390Z,23.39
2017-06-08T04:02:00.423Z,23.42
2017-06-08T04:03:00.444Z,23.46
2017-06-08T04:04:00.414Z,23.43
2017-06-08T04:05:00.497Z,23.46
2017-06-08T04:06:00.531Z,23.43
2017-06-08T04:07:00.563Z,23.4
2017-06-08T04:08:00.581Z,23.51
2017-06-08T04:09:00.869Z,23.4
2017-06-08T04:10:00.637Z,23.43
2017-06-08T04:11:00.668Z,23.5
2017-06-08T04:12:00.695Z,23.46
2017-06-08T04:13:00.720Z,23.46
2017-06-08T04:14:00.944Z,23.51
2017-06-08T04:15:00.778Z,23.46
2017-06-08T04:16:00.804Z,23.47
2017-06-08T04:17:00.827Z,23.46
2017-06-08T04:18:00.547Z,23.43
2017-06-08T04:19:01.141Z,23.53
2017-06-08T04:20:00.914Z,23.42
2017-06-08T04:21:00.626Z,23.43
2017-06-08T04:22:00.967Z,23.46
2017-06-08T04:23:00.993Z,23.55
2017-06-08T04:24:01.272Z,23.46
2017-06-08T04:25:00.733Z,23.4
2017-06-08T04:26:01.071Z,23.42
2017-06-08T04:27:01.103Z,23.47
2017-06-08T04:28:01.136Z,23.46
2017-06-08T04:29:01.097Z,23.48
2017-06-08T04:30:01.176Z,23.5
2017-06-08T04:31:01.210Z,23.47
2017-06-08T04:32:00.930Z,23.48
2017-06-08T04:33:00.948Z,23.48
2017-06-08T04:34:00.916Z,23.5
2017-06-08T04:35:01.316Z,23.5
2017-06-08T04:36:01.077Z,23.51
2017-06-08T04:37:01.064Z,23.55
2017-06-08T04:38:01.404Z,23.48
2017-06-08T04:39:01.688Z,23.48
2017-06-08T04:40:01.453Z,23.58
2017-06-08T04:41:01.171Z,23.46
2017-06-08T04:42:01.526Z,23.53
2017-06-08T04:43:01.539Z,23.51
2017-06-08T04:44:01.816Z,23.46
2017-06-08T04:45:01.276Z,23.55
2017-06-08T04:46:01.621Z,23.55
2017-06-08T04:47:01.329Z,23.5
2017-06-08T04:48:01.680Z,23.53
2017-06-08T04:49:01.957Z,23.51
2017-06-08T04:50:01.417Z,23.54
2017-06-08T04:51:01.437Z,23.46
2017-06-08T04:52:01.786Z,23.55
2017-06-08T04:53:01.827Z,23.55
2017-06-08T04:54:02.043Z,23.54
2017-06-08T04:55:01.870Z,23.5
2017-06-08T04:56:01.893Z,23.55
2017-06-08T04:57:01.614Z,23.51
2017-06-08T04:58:01.942Z,23.54
2017-06-08T04:59:01.916Z,23.58
2017-06-08T05:00:02.005Z,23.55
2017-06-08T05:01:01.713Z,23.54
2017-06-08T05:02:02.063Z,23.55
2017-06-08T05:03:01.454Z,23.55
2017-06-08T05:04:02.364Z,23.58
2017-06-08T05:05:02.144Z,23.57
2017-06-08T05:06:02.162Z,23.54
2017-06-08T05:07:02.194Z,23.57
2017-06-08T05:08:02.255Z,23.6
2017-06-08T05:09:02.498Z,23.6
2017-06-08T05:10:01.644Z,23.55
2017-06-08T05:11:02.304Z,23.57
2017-06-08T05:12:02.330Z,23.57
2017-06-08T05:13:02.360Z,23.54
2017-06-08T05:14:02.388Z,23.58
2017-06-08T05:15:02.409Z,23.65
2017-06-08T05:16:02.441Z,23.55
2017-06-08T05:17:02.154Z,23.6
2017-06-08T05:18:02.491Z,23.57
2017-06-08T05:19:02.519Z,23.55
2017-06-08T05:20:02.548Z,23.65
2017-06-08T05:21:02.569Z,23.6
2017-06-08T05:22:02.605Z,23.6
2017-06-08T05:23:02.629Z,23.61
2017-06-08T05:24:02.658Z,23.63
2017-06-08T05:25:02.689Z,23.61
2017-06-08T05:26:02.706Z,23.61
2017-06-08T05:27:02.433Z,23.65
2017-06-08T05:28:02.138Z,23.69
2017-06-08T05:29:02.791Z,23.55
2017-06-08T05:30:02.507Z,23.58
2017-06-08T05:31:02.845Z,23.58
2017-06-08T05:32:02.873Z,23.66
2017-06-08T05:33:02.598Z,23.68
2017-06-08T05:34:02.619Z,23.58
2017-06-08T05:35:02.648Z,23.5
2017-06-08T05:36:02.665Z,23.6
2017-06-08T05:37:03.018Z,23.57
2017-06-08T05:38:02.730Z,23.61
2017-06-08T05:39:02.758Z,23.68
2017-06-08T05:40:02.782Z,23.58
2017-06-08T05:41:02.804Z,23.65
2017-06-08T05:42:02.838Z,23.66
2017-06-08T05:43:03.186Z,23.6
2017-06-08T05:44:02.894Z,23.72
2017-06-08T05:45:03.231Z,23.63
2017-06-08T05:46:03.258Z,23.69
2017-06-08T05:47:03.294Z,23.72
2017-06-08T05:48:03.313Z,23.66
2017-06-08T05:49:03.346Z,23.73
2017-06-08T05:50:03.371Z,23.75
2017-06-08T05:51:03.437Z,23.73
2017-06-08T05:52:03.426Z,23.7
2017-06-08T05:53:03.506Z,23.78
2017-06-08T05:54:03.478Z,23.8
2017-06-08T05:55:03.515Z,23.76
2017-06-08T05:56:03.225Z,23.73
2017-06-08T05:57:03.565Z,23.76
2017-06-08T05:58:03.278Z,23.78
2017-06-08T05:59:03.623Z,23.76
2017-06-08T06:00:03.904Z,23.75
2017-06-08T06:01:03.361Z,23.73
2017-06-08T06:02:03.701Z,23.76
2017-06-08T06:03:03.730Z,23.78
2017-06-08T06:04:03.130Z,23.76
2017-06-08T06:05:03.979Z,23.73
2017-06-08T06:06:03.496Z,23.76
2017-06-08T06:07:03.837Z,23.75
2017-06-08T06:08:03.237Z,23.75
2017-06-08T06:09:03.894Z,23.72
2017-06-08T06:10:04.170Z,23.75
2017-06-08T06:11:03.635Z,23.83
2017-06-08T06:12:03.660Z,23.76
2017-06-08T06:13:03.690Z,23.76
2017-06-08T06:14:03.727Z,23.76
2017-06-08T06:15:04.314Z,23.79
2017-06-08T06:16:04.083Z,23.9
2017-06-08T06:17:04.112Z,23.78
2017-06-08T06:18:04.149Z,23.8
2017-06-08T06:19:03.850Z,23.84
2017-06-08T06:20:04.393Z,23.88
2017-06-08T06:21:04.223Z,23.84
2017-06-08T06:22:04.253Z,23.87
2017-06-08T06:23:04.272Z,23.88
2017-06-08T06:24:04.314Z,23.88
2017-06-08T06:25:04.586Z,23.84
2017-06-08T06:26:04.051Z,23.85
2017-06-08T06:27:04.071Z,23.88
2017-06-08T06:28:04.106Z,23.84
2017-06-08T06:29:04.442Z,23.87
2017-06-08T06:30:04.726Z,23.88
2017-06-08T06:31:04.500Z,23.91
2017-06-08T06:32:04.525Z,23.85
2017-06-08T06:33:04.554Z,23.91
2017-06-08T06:34:04.613Z,23.97
2017-06-08T06:35:04.855Z,23.94
2017-06-08T06:36:04.324Z,23.91
2017-06-08T06:37:04.656Z,23.78
2017-06-08T06:38:04.685Z,23.88
2017-06-08T06:39:04.725Z,23.87
2017-06-08T06:40:04.993Z,23.9
2017-06-08T06:41:04.771Z,23.85
2017-06-08T06:42:04.792Z,23.94
2017-06-08T06:43:04.825Z,23.88
2017-06-08T06:44:04.546Z,23.91
2017-06-08T06:45:05.125Z,23.94
2017-06-08T06:46:04.911Z,23.91
2017-06-08T06:47:04.618Z,23.9
2017-06-08T06:48:04.965Z,23.94
2017-06-08T06:49:04.682Z,23.94
2017-06-08T06:50:04.914Z,23.93
2017-06-08T06:51:05.052Z,23.91
2017-06-08T06:52:04.771Z,23.93
2017-06-08T06:53:05.100Z,23.95
2017-06-08T06:54:04.817Z,23.9
2017-06-08T06:55:05.090Z,23.94
2017-06-08T06:56:04.869Z,23.91
2017-06-08T06:57:05.221Z,23.95
2017-06-08T06:58:05.240Z,23.95
2017-06-08T06:59:05.265Z,23.98
2017-06-08T07:00:05.550Z,23.93
2017-06-08T07:01:05.324Z,23.94
2017-06-08T07:02:05.359Z,23.95
2017-06-08T07:03:05.066Z,23.95
2017-06-08T07:04:05.405Z,23.94
2017-06-08T07:05:05.126Z,23.93
2017-06-08T07:06:05.457Z,23.95
2017-06-08T07:07:05.545Z,23.9
2017-06-08T07:08:05.203Z,23.88
2017-06-08T07:09:05.549Z,23.98
2017-06-08T07:10:05.262Z,23.88
2017-06-08T07:11:05.286Z,23.9
2017-06-08T07:12:05.631Z,23.93
2017-06-08T07:13:05.688Z,23.87
2017-06-08T07:14:05.709Z,23.88
2017-06-08T07:15:05.086Z,23.84
2017-06-08T07:16:05.783Z,23.87
2017-06-08T07:17:05.756Z,23.87
2017-06-08T07:18:05.486Z,23.87
2017-06-08T07:19:05.826Z,23.84
2017-06-08T07:20:05.538Z,23.9
2017-06-08T07:21:05.872Z,23.78
2017-06-08T07:22:05.591Z,23.84
2017-06-08T07:23:05.622Z,23.85
2017-06-08T07:24:05.648Z,23.84
2017-06-08T07:25:05.981Z,23.83
2017-06-08T07:26:06.015Z,23.76
2017-06-08T07:27:06.039Z,23.85
2017-06-08T07:28:06.073Z,23.83
2017-06-08T07:29:06.096Z,23.78
2017-06-08T07:30:06.122Z,23.87
2017-06-08T07:31:06.153Z,23.85
2017-06-08T07:32:05.871Z,23.76
2017-06-08T07:33:06.212Z,23.78
2017-06-08T07:34:06.242Z,23.78
2017-06-08T07:35:06.266Z,23.78
2017-06-08T07:36:06.298Z,23.78
2017-06-08T07:37:06.003Z,23.84
2017-06-08T07:38:06.351Z,23.85
2017-06-08T07:39:06.065Z,23.83
2017-06-08T07:40:06.397Z,23.84
2017-06-08T07:41:06.434Z,23.78
2017-06-08T07:42:06.459Z,23.85
2017-06-08T07:43:06.176Z,23.9
2017-06-08T07:44:06.197Z,23.85
2017-06-08T07:45:06.225Z,23.85
2017-06-08T07:46:06.256Z,23.87
2017-06-08T07:47:06.587Z,23.85
2017-06-08T07:48:06.620Z,23.85
2017-06-08T07:49:06.341Z,23.87
2017-06-08T07:50:06.368Z,23.87
2017-06-08T07:51:06.705Z,23.87
2017-06-08T07:52:06.730Z,23.87
2017-06-08T07:53:06.763Z,23.87
2017-06-08T07:54:06.169Z,23.93
2017-06-08T07:55:06.818Z,23.84
2017-06-08T07:56:06.850Z,23.87
2017-06-08T07:57:06.882Z,23.87
2017-06-08T07:58:06.899Z,23.85
2017-06-08T07:59:06.924Z,23.91
2017-06-08T08:00:06.962Z,23.9
2017-06-08T08:01:06.672Z,23.94
2017-06-08T08:02:07.010Z,23.9
2017-06-08T08:03:07.039Z,23.93
2017-06-08T08:04:06.755Z,23.87
2017-06-08T08:05:06.785Z,23.93
2017-06-08T08:06:07.373Z,23.87
2017-06-08T08:07:07.150Z,23.87
2017-06-08T08:08:07.178Z,23.85
2017-06-08T08:09:07.208Z,23.93
2017-06-08T08:10:06.922Z,23.95
2017-06-08T08:11:07.198Z,23.93
2017-06-08T08:12:07.277Z,23.97
2017-06-08T08:13:06.998Z,23.91
2017-06-08T08:14:07.336Z,23.98
2017-06-08T08:15:07.069Z,24
2017-06-08T08:16:07.649Z,24
2017-06-08T08:17:07.422Z,24.03
2017-06-08T08:18:07.451Z,24
2017-06-08T08:19:07.498Z,23.98
2017-06-08T08:20:07.511Z,24.06
2017-06-08T08:21:07.789Z,24
2017-06-08T08:22:07.244Z,24.03
2017-06-08T08:23:07.279Z,24.06
2017-06-08T08:24:07.626Z,24.09
2017-06-08T08:25:07.651Z,24.1
2017-06-08T08:26:07.616Z,24.1
2017-06-08T08:27:07.702Z,24.12
2017-06-08T08:28:07.418Z,24.18
2017-06-08T08:29:07.131Z,24.09
2017-06-08T08:30:07.820Z,24.13
2017-06-08T08:31:07.432Z,24.15
2017-06-08T08:32:07.846Z,24.06
2017-06-08T08:33:07.561Z,24.09
2017-06-08T08:34:07.898Z,24.15
2017-06-08T08:35:07.611Z,24.08
2017-06-08T08:36:08.157Z,24.12
2017-06-08T08:37:07.665Z,24.21
2017-06-08T08:38:07.694Z,24.15
2017-06-08T08:39:07.726Z,24.22
2017-06-08T08:40:07.752Z,24.21
2017-06-08T08:41:08.352Z,24.16
2017-06-08T08:42:08.122Z,24.18
2017-06-08T08:43:07.847Z,24.2
2017-06-08T08:44:07.867Z,24.16
2017-06-08T08:45:07.887Z,24.18
2017-06-08T08:46:08.485Z,24.18
2017-06-08T08:47:07.953Z,24.24
2017-06-08T08:48:07.978Z,24.24
2017-06-08T08:49:08.319Z,24.3
2017-06-08T08:50:08.032Z,24.28
2017-06-08T08:51:08.303Z,24.32
2017-06-08T08:52:08.089Z,24.28
2017-06-08T08:53:08.150Z,24.24
2017-06-08T08:54:08.453Z,24.3
2017-06-08T08:55:08.483Z,24.25
2017-06-08T08:56:08.764Z,24.27
2017-06-08T08:57:08.212Z,24.25
2017-06-08T08:58:08.258Z,24.28
2017-06-08T08:59:08.282Z,24.27
2017-06-08T09:00:08.615Z,24.28
2017-06-08T09:01:08.896Z,24.27
2017-06-08T09:02:08.679Z,24.27
2017-06-08T09:03:08.397Z,24.27
2017-06-08T09:04:08.737Z,24.31
2017-06-08T09:05:08.439Z,24.4
2017-06-08T09:06:08.420Z,24.32
2017-06-08T09:07:08.819Z,24.39
2017-06-08T09:08:08.255Z,24.42
2017-06-08T09:09:08.882Z,24.45
2017-06-08T09:10:08.903Z,24.37
2017-06-08T09:11:08.819Z,24.4
2017-06-08T09:12:08.329Z,24.4
2017-06-08T09:13:08.989Z,24.43
2017-06-08T09:14:08.707Z,24.45
2017-06-08T09:15:09.063Z,24.49
2017-06-08T09:16:09.036Z,24.47
2017-06-08T09:17:08.789Z,24.42
2017-06-08T09:18:08.809Z,24.45
2017-06-08T09:19:09.153Z,24.5
2017-06-08T09:20:08.873Z,24.45
2017-06-08T09:21:09.459Z,24.46
2017-06-08T09:22:09.240Z,24.53
2017-06-08T09:23:09.267Z,24.58
2017-06-08T09:24:09.302Z,24.52
2017-06-08T09:25:09.327Z,24.49
2017-06-08T09:26:09.598Z,24.5
2017-06-08T09:27:09.384Z,24.42
2017-06-08T09:28:09.409Z,24.52
2017-06-08T09:29:09.429Z,24.57
2017-06-08T09:30:09.179Z,24.52
2017-06-08T09:31:09.692Z,24.47
2017-06-08T09:32:09.207Z,24.42
2017-06-08T09:33:09.237Z,24.46
2017-06-08T09:34:09.572Z,24.43
2017-06-08T09:35:09.599Z,24.45
2017-06-08T09:36:09.580Z,24.42
2017-06-08T09:37:09.345Z,24.4
2017-06-08T09:38:09.728Z,24.39
2017-06-08T09:39:09.402Z,24.42
2017-06-08T09:40:09.751Z,24.39
2017-06-08T09:41:10.026Z,24.32
2017-06-08T09:42:09.492Z,24.35
2017-06-08T09:43:09.521Z,24.42
2017-06-08T09:44:09.859Z,24.37
2017-06-08T09:45:09.574Z,24.37
2017-06-08T09:46:09.850Z,24.45
2017-06-08T09:47:09.333Z,24.45
2017-06-08T09:48:09.349Z,24.37
2017-06-08T09:49:09.993Z,24.39
2017-06-08T09:50:09.714Z,24.39
2017-06-08T09:51:10.306Z,24.42
2017-06-08T09:52:10.091Z,24.34
2017-06-08T09:53:10.152Z,24.37
2017-06-08T09:54:10.138Z,24.42
2017-06-08T09:55:09.538Z,24.46
2017-06-08T09:56:10.477Z,24.45
2017-06-08T09:57:09.915Z,24.49
2017-06-08T09:58:10.248Z,24.52
2017-06-08T09:59:10.281Z,24.46
2017-06-08T10:00:10.332Z,24.46
2017-06-08T10:01:10.583Z,24.46
2017-06-08T10:02:10.048Z,24.53
2017-06-08T10:03:10.080Z,24.5
2017-06-08T10:04:10.108Z,24.5
2017-06-08T10:05:10.442Z,24.52
2017-06-08T10:06:10.470Z,24.55
2017-06-08T10:07:10.504Z,24.57
2017-06-08T10:08:10.221Z,24.55
2017-06-08T10:09:10.565Z,24.49
2017-06-08T10:10:10.585Z,24.52
2017-06-08T10:11:10.618Z,24.52
2017-06-08T10:12:10.332Z,24.52
2017-06-08T10:13:10.673Z,24.55
2017-06-08T10:14:10.696Z,24.6
2017-06-08T10:15:10.725Z,24.53
2017-06-08T10:16:10.438Z,24.58
2017-06-08T10:17:10.786Z,24.53
2017-06-08T10:18:10.812Z,24.61
2017-06-08T10:19:10.532Z,24.64
2017-06-08T10:20:10.556Z,24.6
2017-06-08T10:21:10.586Z,24.68
2017-06-08T10:22:10.935Z,24.67
2017-06-08T10:23:10.960Z,24.69
2017-06-08T10:24:10.985Z,24.73
2017-06-08T10:25:11.010Z,24.69
2017-06-08T10:26:11.042Z,24.73
2017-06-08T10:27:11.067Z,24.67
2017-06-08T10:28:10.785Z,24.62
2017-06-08T10:29:10.815Z,24.71
2017-06-08T10:30:11.156Z,24.69
2017-06-08T10:31:11.244Z,24.73
2017-06-08T10:32:10.891Z,24.76
2017-06-08T10:33:10.969Z,24.83
2017-06-08T10:34:11.265Z,24.83
2017-06-08T10:35:10.983Z,24.78
2017-06-08T10:36:11.007Z,24.8
2017-06-08T10:37:11.347Z,24.8
2017-06-08T10:38:11.387Z,24.78
2017-06-08T10:39:11.087Z,24.77
2017-06-08T10:40:11.429Z,24.83
2017-06-08T10:41:11.152Z,24.84
2017-06-08T10:42:11.181Z,24.84
2017-06-08T10:43:11.516Z,24.85
2017-06-08T10:44:11.548Z,24.91
2017-06-08T10:45:11.580Z,24.88
2017-06-08T10:46:11.289Z,24.88
2017-06-08T10:47:11.667Z,24.85
2017-06-08T10:48:11.351Z,25
2017-06-08T10:49:11.692Z,24.95
2017-06-08T10:50:11.720Z,24.96
2017-06-08T10:51:11.750Z,24.99
2017-06-08T10:52:11.782Z,24.99
2017-06-08T10:53:11.179Z,24.99
2017-06-08T10:54:11.840Z,25
2017-06-08T10:55:11.862Z,24.99
2017-06-08T10:56:11.577Z,25.03
2017-06-08T10:57:11.859Z,25.05
2017-06-08T10:58:11.952Z,25.05
2017-06-08T10:59:11.976Z,25.13
2017-06-08T11:00:12.005Z,25.13
2017-06-08T11:01:12.065Z,25.08
2017-06-08T11:02:12.318Z,25.15
2017-06-08T11:03:11.779Z,25.1
2017-06-08T11:04:12.118Z,25.13
2017-06-08T11:05:11.835Z,25.18
2017-06-08T11:06:11.866Z,25.17
2017-06-08T11:07:12.458Z,25.18
2017-06-08T11:08:12.230Z,25.15
2017-06-08T11:09:11.951Z,25.18
2017-06-08T11:10:12.288Z,25.2
2017-06-08T11:11:11.714Z,25.27
2017-06-08T11:12:12.229Z,25.24
2017-06-08T11:13:12.370Z,25.23
2017-06-08T11:14:12.402Z,25.38
2017-06-08T11:15:12.436Z,25.23
2017-06-08T11:16:12.153Z,25.35
2017-06-08T11:17:12.693Z,25.32
2017-06-08T11:18:12.523Z,25.36
2017-06-08T11:19:12.551Z,25.46
2017-06-08T11:20:12.572Z,25.4
2017-06-08T11:21:12.608Z,25.33
2017-06-08T11:22:12.891Z,25.35
2017-06-08T11:23:12.355Z,25.43
2017-06-08T11:24:12.695Z,25.47
2017-06-08T11:25:12.724Z,25.55
2017-06-08T11:26:12.753Z,25.55
2017-06-08T11:27:13.033Z,25.5
2017-06-08T11:28:12.496Z,25.54
2017-06-08T11:29:12.530Z,25.47
2017-06-08T11:30:12.869Z,25.5
2017-06-08T11:31:12.896Z,25.6
2017-06-08T11:32:13.125Z,25.61
2017-06-08T11:33:12.958Z,25.67
2017-06-08T11:34:12.998Z,25.55
2017-06-08T11:35:12.700Z,25.64
2017-06-08T11:36:13.048Z,25.64
2017-06-08T11:37:13.325Z,25.76
2017-06-08T11:38:13.102Z,25.88
2017-06-08T11:39:13.122Z,25.91
2017-06-08T11:40:13.154Z,26.06
2017-06-08T11:41:13.201Z,26.12
2017-06-08T11:42:13.468Z,26.2
2017-06-08T11:43:12.935Z,26.26
2017-06-08T11:44:12.987Z,26.45
2017-06-08T11:45:13.308Z,26.54
2017-06-08T11:46:13.029Z,26.6
2017-06-08T11:47:13.565Z,26.77
2017-06-08T11:48:13.398Z,26.91
2017-06-08T11:49:13.427Z,26.97
2017-06-08T11:50:13.143Z,27.14
2017-06-08T11:51:13.493Z,27.24
2017-06-08T11:52:13.521Z,27.27
2017-06-08T11:53:13.554Z,27.36
2017-06-08T11:54:13.582Z,27.5
2017-06-08T11:55:12.992Z,27.57
2017-06-08T11:56:13.021Z,27.59
2017-06-08T11:57:13.365Z,27.66
2017-06-08T11:58:13.393Z,27.84
2017-06-08T11:59:13.734Z,27.93
2017-06-08T12:00:13.768Z,28.02
2017-06-08T12:01:13.800Z,28.09
2017-06-08T12:02:13.841Z,28.17
2017-06-08T12:03:13.866Z,28.37
2017-06-08T12:04:13.578Z,28.39
2017-06-08T12:05:13.927Z,28.44
2017-06-08T12:06:14.000Z,28.48
2017-06-08T12:07:13.673Z,28.59
2017-06-08T12:08:14.066Z,28.73
2017-06-08T12:09:13.743Z,28.77
2017-06-08T12:10:14.090Z,28.88
2017-06-08T12:11:14.113Z,28.96
2017-06-08T12:12:14.149Z,29.11
2017-06-08T12:13:13.877Z,29.24
2017-06-08T12:14:14.215Z,29.34
2017-06-08T12:15:14.244Z,29.34
2017-06-08T12:16:14.279Z,29.48
2017-06-08T12:17:14.001Z,29.51
2017-06-08T12:18:14.036Z,29.61
2017-06-08T12:19:14.374Z,29.7
2017-06-08T12:20:14.414Z,29.74
2017-06-08T12:21:14.440Z,29.87
2017-06-08T12:22:14.473Z,29.97
2017-06-08T12:23:14.197Z,30
2017-06-08T12:24:14.535Z,30.15
2017-06-08T12:25:14.579Z,30.11
2017-06-08T12:26:14.295Z,30.22
2017-06-08T12:27:14.639Z,30.29
2017-06-08T12:28:14.882Z,30.38
2017-06-08T12:29:14.727Z,30.38
2017-06-08T12:30:14.740Z,30.51
2017-06-08T12:31:14.467Z,30.53
2017-06-08T12:32:14.808Z,30.54
2017-06-08T12:33:14.782Z,30.58
2017-06-08T12:34:14.882Z,30.58
2017-06-08T12:35:14.911Z,30.75
2017-06-08T12:36:14.632Z,30.79
2017-06-08T12:37:14.989Z,30.75
2017-06-08T12:38:14.901Z,30.89
2017-06-08T12:39:15.045Z,30.91
2017-06-08T12:40:15.079Z,30.89
2017-06-08T12:41:15.115Z,31.02
2017-06-08T12:42:14.840Z,31.01
2017-06-08T12:43:15.377Z,31.13
2017-06-08T12:44:15.214Z,31.1
2017-06-08T12:45:15.243Z,31.2
2017-06-08T12:46:15.283Z,31.23
2017-06-08T12:47:15.336Z,31.17
2017-06-08T12:48:15.605Z,31.28
2017-06-08T12:49:15.382Z,31.26
2017-06-08T12:50:15.417Z,31.29
2017-06-08T12:51:15.443Z,31.36
2017-06-08T12:52:15.484Z,31.39
2017-06-08T12:53:15.716Z,31.5
2017-06-08T12:54:15.561Z,31.51
2017-06-08T12:55:15.278Z,31.56
2017-06-08T12:56:15.627Z,31.58
2017-06-08T12:57:15.652Z,31.61